createdAt,value
2022-10-16T00:00:26.231Z,100584.59
2022-10-16T00:03:11.972Z,100584.94
2022-10-16T00:06:01.104Z,100580.66
2022-10-16T00:08:47.383Z,100580.81
2022-10-16T00:11:37.302Z,100583.47
2022-10-16T00:14:22.044Z,100586.72
2022-10-16T00:17:07.192Z,100578.25
2022-10-16T00:19:52.038Z,100579.38
2022-10-16T00:22:37.144Z,100596.53
2022-10-16T00:25:22.172Z,100595.06
2022-10-16T00:28:07.401Z,100588.44
2022-10-16T00:30:52.829Z,100595.94
2022-10-16T00:33:39.870Z,100595.03
2022-10-16T00:36:26.543Z,100600.06
2022-10-16T00:39:11.702Z,100586.78
2022-10-16T00:41:56.692Z,100575.53
2022-10-16T00:45:02.276Z,100586.03
2022-10-16T00:47:49.992Z,100585.91
2022-10-16T00:50:35.503Z,100586.09
2022-10-16T00:53:20.894Z,100591.13
2022-10-16T00:56:06.408Z,100593.31
2022-10-16T00:58:51.238Z,100585.69
2022-10-16T01:01:36.531Z,100580.09
2022-10-16T01:04:22.609Z,100574.84
2022-10-16T01:07:34.308Z,100590.66
2022-10-16T01:10:33.654Z,100585.88
2022-10-16T01:13:24.195Z,100586.22
2022-10-16T01:16:29.764Z,100589.41
2022-10-16T01:19:32.991Z,100598.28
2022-10-16T01:22:20.944Z,100603.63
2022-10-16T01:25:13.478Z,100607.94
2022-10-16T01:28:02.367Z,100600.31
2022-10-16T01:30:48.068Z,100602.47
2022-10-16T01:33:43.105Z,100604.97
2022-10-16T01:36:35.858Z,100592.88
2022-10-16T01:39:25.851Z,100605.00
2022-10-16T01:42:17.571Z,100609.38
2022-10-16T01:45:07.428Z,100609.72
2022-10-16T01:47:54.404Z,100600.63
2022-10-16T01:50:42.542Z,100608.06
2022-10-16T01:53:28.115Z,100605.94
2022-10-16T01:56:14.104Z,100616.38
2022-10-16T01:59:12.278Z,100613.41
2022-10-16T02:02:01.854Z,100606.63
2022-10-16T02:04:55.657Z,100608.09
2022-10-16T02:07:42.937Z,100610.06
2022-10-16T02:10:31.698Z,100612.19
2022-10-16T02:13:22.853Z,100623.81
2022-10-16T02:16:08.371Z,100623.31
2022-10-16T02:18:53.488Z,100618.78
2022-10-16T02:22:00.844Z,100621.91
2022-10-16T02:24:59.923Z,100610.00
2022-10-16T02:27:58.894Z,100614.97
2022-10-16T02:30:49.306Z,100616.44
2022-10-16T02:33:38.199Z,100621.06
2022-10-16T02:36:23.842Z,100621.91
2022-10-16T02:39:09.602Z,100634.66
2022-10-16T02:41:54.527Z,100623.97
2022-10-16T02:44:39.713Z,100636.03
2022-10-16T02:47:24.650Z,100621.63
2022-10-16T02:50:09.959Z,100628.03
2022-10-16T02:52:55.255Z,100637.31
2022-10-16T02:55:40.419Z,100636.53
2022-10-16T02:58:25.443Z,100640.00
2022-10-16T03:01:10.554Z,100633.66
2022-10-16T03:03:55.391Z,100628.53
2022-10-16T03:06:40.588Z,100624.03
2022-10-16T03:09:25.723Z,100616.44
2022-10-16T03:12:12.813Z,100615.25
2022-10-16T03:14:58.159Z,100609.38
2022-10-16T03:17:44.007Z,100604.69
2022-10-16T03:20:29.054Z,100599.72
2022-10-16T03:23:14.231Z,100609.16
2022-10-16T03:25:59.690Z,100616.34
2022-10-16T03:28:44.577Z,100614.97
2022-10-16T03:31:30.703Z,100614.59
2022-10-16T03:34:16.019Z,100611.47
2022-10-16T03:37:01.068Z,100604.31
2022-10-16T03:39:46.998Z,100602.28
2022-10-16T03:42:31.794Z,100619.09
2022-10-16T03:45:17.530Z,100619.72
2022-10-16T03:48:04.176Z,100622.03
2022-10-16T03:50:49.283Z,100628.56
2022-10-16T03:53:34.350Z,100638.19
2022-10-16T03:56:19.377Z,100656.28
2022-10-16T03:59:04.374Z,100652.00
2022-10-16T04:01:49.493Z,100664.28
2022-10-16T04:04:34.956Z,100663.75
2022-10-16T04:07:19.967Z,100662.16
2022-10-16T04:10:05.334Z,100658.50
2022-10-16T04:12:50.410Z,100652.56
2022-10-16T04:15:35.587Z,100645.13
2022-10-16T04:18:20.868Z,100656.75
2022-10-16T04:21:07.131Z,100660.06
2022-10-16T04:23:52.196Z,100661.91
2022-10-16T04:26:37.423Z,100670.63
2022-10-16T04:29:22.396Z,100669.50
2022-10-16T04:32:09.557Z,100667.63
2022-10-16T04:34:54.730Z,100675.97
2022-10-16T04:37:39.564Z,100669.19
2022-10-16T04:40:24.920Z,100676.53
2022-10-16T04:43:09.991Z,100676.03
2022-10-16T04:45:55.636Z,100677.22
2022-10-16T04:48:40.655Z,100674.38
2022-10-16T04:51:26.610Z,100682.88
2022-10-16T04:54:11.680Z,100694.56
2022-10-16T04:56:56.550Z,100693.63
2022-10-16T04:59:41.742Z,100691.31
2022-10-16T05:02:26.805Z,100702.94
2022-10-16T05:05:12.560Z,100709.44
2022-10-16T05:07:57.498Z,100712.78
2022-10-16T05:10:43.883Z,100698.13
2022-10-16T05:13:28.752Z,100697.22
2022-10-16T05:16:13.727Z,100706.69
2022-10-16T05:19:22.514Z,100708.53
2022-10-16T05:22:03.515Z,100719.00
2022-10-16T05:24:48.588Z,100706.38
2022-10-16T05:27:33.676Z,100704.75
2022-10-16T05:30:19.300Z,100711.91
2022-10-16T05:33:04.107Z,100723.25
2022-10-16T05:35:50.582Z,100714.31
2022-10-16T05:38:38.816Z,100719.31
2022-10-16T05:41:26.267Z,100714.03
2022-10-16T05:44:11.494Z,100705.94
2022-10-16T05:46:56.502Z,100714.25
2022-10-16T05:49:41.710Z,100720.75
2022-10-16T05:52:28.007Z,100731.94
2022-10-16T05:55:12.990Z,100745.41
2022-10-16T05:57:57.927Z,100741.28
2022-10-16T06:00:43.166Z,100753.97
2022-10-16T06:03:28.878Z,100761.44
2022-10-16T06:06:19.473Z,100754.78
2022-10-16T06:09:05.123Z,100757.81
2022-10-16T06:11:50.789Z,100775.25
2022-10-16T06:14:35.609Z,100790.03
2022-10-16T06:17:20.701Z,100782.88
2022-10-16T06:20:06.267Z,100790.03
2022-10-16T06:22:51.084Z,100779.75
2022-10-16T06:25:36.201Z,100779.06
2022-10-16T06:28:21.424Z,100791.34
2022-10-16T06:31:08.501Z,100787.69
2022-10-16T06:33:55.051Z,100803.78
2022-10-16T06:36:40.483Z,100803.94
2022-10-16T06:39:25.376Z,100812.72
2022-10-16T06:42:10.543Z,100814.75
2022-10-16T06:44:55.429Z,100812.72
2022-10-16T06:47:40.648Z,100827.81
2022-10-16T06:50:25.992Z,100832.47
2022-10-16T06:53:10.780Z,100831.44
2022-10-16T06:55:56.354Z,100826.75
2022-10-16T06:58:42.805Z,100840.53
2022-10-16T07:01:28.474Z,100846.19
2022-10-16T07:04:13.402Z,100836.19
2022-10-16T07:06:58.168Z,100849.66
2022-10-16T07:09:43.309Z,100850.41
2022-10-16T07:12:28.627Z,100859.81
2022-10-16T07:15:13.943Z,100853.50
2022-10-16T07:17:58.700Z,100863.69
2022-10-16T07:20:43.602Z,100869.03
2022-10-16T07:23:28.664Z,100884.16
2022-10-16T07:26:13.908Z,100880.81
2022-10-16T07:28:58.908Z,100880.63
2022-10-16T07:31:44.131Z,100893.91
2022-10-16T07:34:28.991Z,100893.03
2022-10-16T07:37:14.106Z,100891.94
2022-10-16T07:39:58.970Z,100899.16
2022-10-16T07:42:44.170Z,100897.28
2022-10-16T07:45:29.222Z,100912.81
2022-10-16T07:48:14.341Z,100919.47
2022-10-16T07:51:03.628Z,100925.28
2022-10-16T07:53:49.120Z,100928.84
2022-10-16T07:56:34.348Z,100931.53
2022-10-16T07:59:19.609Z,100938.19
2022-10-16T08:02:04.422Z,100945.88
2022-10-16T08:04:51.067Z,100949.88
2022-10-16T08:07:35.845Z,100938.44
2022-10-16T08:10:22.554Z,100954.19
2022-10-16T08:15:58.345Z,100949.59
2022-10-16T08:18:43.705Z,100955.53
2022-10-16T08:21:28.469Z,100959.81
2022-10-16T08:24:13.431Z,100955.31
2022-10-16T08:26:58.488Z,100962.69
2022-10-16T08:29:43.565Z,100966.53
2022-10-16T08:32:29.121Z,100966.75
2022-10-16T08:35:15.157Z,100980.69
2022-10-16T08:38:00.236Z,100983.31
2022-10-16T08:40:47.421Z,100981.75
2022-10-16T08:43:55.796Z,100988.28
2022-10-16T08:47:18.114Z,100991.66
2022-10-16T08:50:11.815Z,100991.56
2022-10-16T08:52:58.292Z,100988.88
2022-10-16T08:55:46.705Z,100988.66
2022-10-16T08:58:31.851Z,100997.72
2022-10-16T09:01:20.114Z,101000.69
2022-10-16T09:04:26.804Z,100999.81
2022-10-16T09:07:23.967Z,101000.03
2022-10-16T09:10:11.764Z,100999.28
2022-10-16T09:13:10.886Z,101002.41
2022-10-16T09:16:14.355Z,101008.41
2022-10-16T09:19:15.795Z,101003.03
2022-10-16T09:22:11.564Z,101015.22
2022-10-16T09:25:06.291Z,101008.00
2022-10-16T09:27:54.494Z,101004.47
2022-10-16T09:30:40.469Z,100999.03
2022-10-16T09:33:31.352Z,101005.78
2022-10-16T09:36:17.641Z,101008.59
2022-10-16T09:39:06.894Z,101016.66
2022-10-16T09:41:52.620Z,101011.09
2022-10-16T09:44:37.748Z,101008.81
2022-10-16T09:47:26.838Z,101006.06
2022-10-16T09:50:27.968Z,101011.16
2022-10-16T09:53:14.954Z,101016.94
2022-10-16T09:55:59.848Z,101022.81
2022-10-16T09:58:51.825Z,101014.19
2022-10-16T10:01:40.267Z,101019.28
2022-10-16T10:04:26.793Z,101014.56
2022-10-16T10:07:20.153Z,101013.31
2022-10-16T10:10:07.243Z,101001.91
2022-10-16T10:12:52.748Z,101011.72
2022-10-16T10:15:42.642Z,101007.97
2022-10-16T10:18:27.775Z,100993.72
2022-10-16T10:21:16.578Z,100989.03
2022-10-16T10:24:01.693Z,100980.03
2022-10-16T10:27:07.414Z,100993.34
2022-10-16T10:30:07.289Z,101005.94
2022-10-16T10:33:02.723Z,101012.97
2022-10-16T10:36:20.641Z,101013.69
2022-10-16T10:39:16.531Z,101008.78
2022-10-16T10:42:14.488Z,101011.34
2022-10-16T10:45:27.129Z,101010.19
2022-10-16T10:48:50.922Z,101008.88
2022-10-16T10:51:50.112Z,101003.78
2022-10-16T10:55:01.258Z,101008.34
2022-10-16T10:58:07.918Z,101006.59
2022-10-16T11:01:13.318Z,100999.53
2022-10-16T11:04:22.844Z,101004.75
2022-10-16T11:07:27.103Z,101015.03
2022-10-16T11:10:25.053Z,101009.81
2022-10-16T11:13:29.452Z,101009.97
2022-10-16T11:16:29.273Z,101010.00
2022-10-16T11:19:26.936Z,101016.84
2022-10-16T11:22:34.760Z,101014.25
2022-10-16T11:25:26.519Z,101011.00
2022-10-16T11:28:27.988Z,101010.53
2022-10-16T11:31:41.118Z,101017.19
2022-10-16T11:34:53.002Z,101007.03
2022-10-16T11:37:44.201Z,101012.34
2022-10-16T11:40:36.275Z,101010.22
2022-10-16T11:43:26.078Z,101015.59
2022-10-16T11:46:17.283Z,101013.09
2022-10-16T11:49:14.617Z,101019.03
2022-10-16T11:52:26.931Z,101027.38
2022-10-16T11:55:21.865Z,101031.81
2022-10-16T11:58:08.943Z,101028.53
2022-10-16T12:01:19.106Z,101022.50
2022-10-16T12:04:30.427Z,101021.25
2022-10-16T12:07:23.116Z,101027.78
2022-10-16T12:10:28.563Z,101026.91
2022-10-16T12:13:33.582Z,101031.88
2022-10-16T12:16:22.759Z,101029.78
2022-10-16T12:19:15.747Z,101023.16
2022-10-16T12:22:02.571Z,101025.00
2022-10-16T12:24:52.363Z,101026.25
2022-10-16T12:27:38.190Z,101024.03
2022-10-16T12:30:25.878Z,101015.75
2022-10-16T12:33:24.055Z,101016.84
2022-10-16T12:36:35.433Z,101012.50
2022-10-16T12:39:24.305Z,101002.34
2022-10-16T12:42:34.313Z,101008.38
2022-10-16T12:45:34.314Z,101010.25
2022-10-16T12:48:26.502Z,101009.22
2022-10-16T12:51:36.143Z,101008.78
2022-10-16T12:54:38.060Z,101007.72
2022-10-16T12:57:38.981Z,101015.56
2022-10-16T13:00:32.087Z,101012.88
2022-10-16T13:03:37.131Z,101015.75
2022-10-16T13:06:35.484Z,101011.44
2022-10-16T13:09:33.060Z,101005.81
2022-10-16T13:12:36.143Z,101005.84
2022-10-16T13:15:47.366Z,101010.84
2022-10-16T13:19:03.448Z,101016.00
2022-10-16T13:22:04.236Z,101021.56
2022-10-16T13:25:13.858Z,101017.41
2022-10-16T13:28:01.424Z,101014.34
2022-10-16T13:30:54.956Z,101025.53
2022-10-16T13:33:46.720Z,101024.91
2022-10-16T13:36:36.871Z,101031.75
2022-10-16T13:39:29.507Z,101037.72
2022-10-16T13:42:27.784Z,101024.47
2022-10-16T13:45:21.651Z,101020.56
2022-10-16T13:48:13.218Z,101013.94
2022-10-16T13:51:07.848Z,101020.56
2022-10-16T13:53:53.400Z,101024.06
2022-10-16T13:56:40.107Z,101021.59
2022-10-16T13:59:43.588Z,101014.53
2022-10-16T14:02:36.013Z,101015.78
2022-10-16T14:05:20.951Z,101017.44
2022-10-16T14:08:06.194Z,101018.47
2022-10-16T14:10:54.200Z,101027.19
2022-10-16T14:13:47.080Z,101029.00
2022-10-16T14:16:33.415Z,101018.06
2022-10-16T14:19:27.779Z,101019.53
2022-10-16T14:22:21.690Z,101018.91
2022-10-16T14:25:22.221Z,101005.50
2022-10-16T14:28:23.937Z,100999.69
2022-10-16T14:31:20.525Z,101001.56
2022-10-16T14:34:05.541Z,101008.34
2022-10-16T14:36:50.943Z,101010.63
2022-10-16T14:39:36.417Z,101004.22
2022-10-16T14:42:26.726Z,101020.34
2022-10-16T14:45:12.668Z,101018.28
2022-10-16T14:48:05.340Z,101011.25
2022-10-16T14:50:50.382Z,101007.13
2022-10-16T14:53:35.186Z,101019.09
2022-10-16T14:56:23.570Z,101016.22
2022-10-16T14:59:33.615Z,101016.22
2022-10-16T15:02:21.581Z,101013.78
2022-10-16T15:05:24.585Z,101017.50
2022-10-16T15:08:09.442Z,101020.38
2022-10-16T15:10:54.664Z,101018.94
2022-10-16T15:13:39.456Z,101010.28
2022-10-16T15:16:25.110Z,101020.59
2022-10-16T15:19:10.259Z,101020.59
2022-10-16T15:21:55.115Z,101021.00
2022-10-16T15:24:40.511Z,101029.28
2022-10-16T15:27:25.542Z,101034.22
2022-10-16T15:30:11.511Z,101036.44
2022-10-16T15:32:56.596Z,101031.06
2022-10-16T15:35:42.193Z,101024.47
2022-10-16T15:38:28.924Z,101016.81
2022-10-16T15:41:14.041Z,101022.59
2022-10-16T15:43:59.505Z,101019.06
2022-10-16T15:46:44.815Z,101023.19
2022-10-16T15:49:29.664Z,101018.03
2022-10-16T15:52:14.906Z,101011.84
2022-10-16T15:54:59.968Z,101014.94
2022-10-16T15:57:45.856Z,101017.81
2022-10-16T16:00:30.804Z,101014.50
2022-10-16T16:03:15.881Z,101017.16
2022-10-16T16:06:06.056Z,101016.13
2022-10-16T16:08:52.609Z,101007.63
2022-10-16T16:11:39.611Z,101019.19
2022-10-16T16:14:26.941Z,101012.16
2022-10-16T16:17:11.874Z,101015.88
2022-10-16T16:19:56.754Z,101015.44
2022-10-16T16:22:42.596Z,101021.00
2022-10-16T16:25:27.471Z,101013.97
2022-10-16T16:28:15.091Z,101022.03
2022-10-16T16:31:00.303Z,101027.16
2022-10-16T16:33:45.787Z,101032.66
2022-10-16T16:36:30.753Z,101031.19
2022-10-16T16:39:15.841Z,101024.56
2022-10-16T16:42:01.098Z,101022.50
2022-10-16T16:44:48.079Z,101028.66
2022-10-16T16:47:32.912Z,101038.56
2022-10-16T16:50:18.051Z,101031.31
2022-10-16T16:53:03.581Z,101041.59
2022-10-16T16:55:48.773Z,101031.31
2022-10-16T16:58:34.562Z,101036.06
2022-10-16T17:01:21.537Z,101034.56
2022-10-16T17:04:07.451Z,101045.88
2022-10-16T17:06:55.372Z,101051.22
2022-10-16T17:09:40.447Z,101054.69
2022-10-16T17:12:25.709Z,101051.75
2022-10-16T17:15:10.947Z,101047.50
2022-10-16T17:17:55.782Z,101045.50
2022-10-16T17:20:41.315Z,101053.69
2022-10-16T17:23:26.520Z,101056.28
2022-10-16T17:26:16.638Z,101056.06
2022-10-16T17:29:01.990Z,101063.00
2022-10-16T17:31:50.536Z,101068.94
2022-10-16T17:34:35.529Z,101063.16
2022-10-16T17:37:20.662Z,101062.31
2022-10-16T17:40:06.397Z,101066.00
2022-10-16T17:42:51.394Z,101064.09
2022-10-16T17:45:37.703Z,101065.97
2022-10-16T17:48:24.101Z,101079.53
2022-10-16T17:51:11.616Z,101078.91
2022-10-16T17:53:59.272Z,101081.78
2022-10-16T17:56:44.185Z,101081.34
2022-10-16T17:59:29.290Z,101069.59
2022-10-16T18:02:14.642Z,101076.16
2022-10-16T18:05:00.449Z,101068.13
2022-10-16T18:07:45.326Z,101076.16
2022-10-16T18:10:30.894Z,101086.25
2022-10-16T18:13:17.322Z,101090.97
2022-10-16T18:16:04.330Z,101089.38
2022-10-16T18:18:50.205Z,101085.88
2022-10-16T18:21:35.076Z,101084.19
2022-10-16T18:24:20.398Z,101083.19
2022-10-16T18:27:05.175Z,101081.28
2022-10-16T18:29:50.214Z,101079.19
2022-10-16T18:32:35.744Z,101084.06
2022-10-16T18:35:21.560Z,101088.16
2022-10-16T18:38:06.814Z,101086.50
2022-10-16T18:40:51.848Z,101097.59
2022-10-16T18:43:38.456Z,101090.78
2022-10-16T18:46:26.123Z,101095.63
2022-10-16T18:49:11.022Z,101092.28
2022-10-16T18:51:57.062Z,101100.69
2022-10-16T18:54:42.224Z,101105.78
2022-10-16T18:57:30.182Z,101101.59
2022-10-16T19:00:15.685Z,101093.28
2022-10-16T19:03:00.744Z,101092.06
2022-10-16T19:05:48.221Z,101099.59
2022-10-16T19:08:33.691Z,101105.69
2022-10-16T19:11:21.992Z,101104.31
2022-10-16T19:14:06.921Z,101114.38
2022-10-16T19:16:51.791Z,101113.94
2022-10-16T19:19:38.148Z,101126.38
2022-10-16T19:22:40.797Z,101122.63
2022-10-16T19:25:27.878Z,101125.09
2022-10-16T19:28:12.822Z,101129.16
2022-10-16T19:31:02.733Z,101131.75
2022-10-16T19:33:52.570Z,101126.41
2022-10-16T19:36:39.263Z,101126.56
2022-10-16T19:39:25.045Z,101133.69
2022-10-16T19:42:10.382Z,101138.75
2022-10-16T19:44:55.399Z,101135.38
2022-10-16T19:47:40.521Z,101130.53
2022-10-16T19:50:25.614Z,101138.66
2022-10-16T19:53:10.768Z,101134.88
2022-10-16T19:55:56.438Z,101149.19
2022-10-16T19:58:42.055Z,101139.97
2022-10-16T20:01:30.027Z,101136.34
2022-10-16T20:04:15.095Z,101138.19
2022-10-16T20:06:59.953Z,101135.06
2022-10-16T20:09:44.872Z,101139.84
2022-10-16T20:12:29.957Z,101141.59
2022-10-16T20:15:15.263Z,101144.88
2022-10-16T20:18:00.223Z,101141.00
2022-10-16T20:20:48.512Z,101144.75
2022-10-16T20:23:33.559Z,101148.50
2022-10-16T20:26:20.583Z,101158.72
2022-10-16T20:29:06.119Z,101159.91
2022-10-16T20:31:51.170Z,101156.41
2022-10-16T20:34:36.229Z,101165.41
2022-10-16T20:37:21.286Z,101148.59
2022-10-16T20:40:07.146Z,101153.50
2022-10-16T20:42:52.074Z,101150.78
2022-10-16T20:45:37.167Z,101150.28
2022-10-16T20:48:22.160Z,101148.50
2022-10-16T20:51:14.592Z,101142.34
2022-10-16T20:54:01.568Z,101149.22
2022-10-16T20:56:47.125Z,101149.94
2022-10-16T20:59:32.368Z,101144.75
2022-10-16T21:02:17.577Z,101142.28
2022-10-16T21:05:02.718Z,101147.03
2022-10-16T21:07:47.525Z,101142.38
2022-10-16T21:10:32.645Z,101150.88
2022-10-16T21:13:17.842Z,101146.59
2022-10-16T21:16:03.211Z,101145.75
2022-10-16T21:18:48.827Z,101145.75
2022-10-16T21:21:37.637Z,101134.44
2022-10-16T21:24:22.548Z,101133.75
2022-10-16T21:27:08.021Z,101133.13
2022-10-16T21:29:54.086Z,101137.97
2022-10-16T21:32:39.384Z,101132.28
2022-10-16T21:35:25.096Z,101137.81
2022-10-16T21:38:10.009Z,101134.47
2022-10-16T21:40:54.764Z,101131.13
2022-10-16T21:43:39.941Z,101137.50
2022-10-16T21:46:27.229Z,101141.16
2022-10-16T21:49:15.891Z,101145.00
2022-10-16T21:52:00.761Z,101144.50
2022-10-16T21:54:45.777Z,101146.72
2022-10-16T21:57:30.987Z,101148.03
2022-10-16T22:00:15.995Z,101142.91
2022-10-16T22:03:01.421Z,101140.91
2022-10-16T22:05:46.494Z,101145.94
2022-10-16T22:08:33.159Z,101151.59
2022-10-16T22:11:22.359Z,101144.78
2022-10-16T22:14:11.184Z,101142.28
2022-10-16T22:16:56.057Z,101152.94
2022-10-16T22:19:41.213Z,101143.94
2022-10-16T22:22:26.366Z,101154.59
2022-10-16T22:25:11.507Z,101153.44
2022-10-16T22:27:56.496Z,101144.59
2022-10-16T22:30:41.448Z,101147.09
2022-10-16T22:33:26.553Z,101151.75
2022-10-16T22:36:13.797Z,101150.44
2022-10-16T22:38:59.303Z,101147.97
2022-10-16T22:41:44.280Z,101155.47
2022-10-16T22:44:32.270Z,101140.81
2022-10-16T22:47:17.244Z,101142.63
2022-10-16T22:50:02.556Z,101139.97
2022-10-16T22:52:47.502Z,101138.16
2022-10-16T22:55:32.598Z,101134.19
2022-10-16T22:58:17.815Z,101141.34
2022-10-16T23:01:09.355Z,101137.69
2022-10-16T23:03:54.674Z,101137.69
2022-10-16T23:06:39.521Z,101146.16
2022-10-16T23:09:24.591Z,101140.00
2022-10-16T23:12:09.642Z,101143.81
2022-10-16T23:14:54.691Z,101142.66
2022-10-16T23:17:39.444Z,101147.00
2022-10-16T23:20:25.073Z,101148.50
2022-10-16T23:23:10.230Z,101144.34
2022-10-16T23:25:54.989Z,101146.69
2022-10-16T23:28:40.227Z,101141.84
2022-10-16T23:31:26.086Z,101144.00
2022-10-16T23:34:11.339Z,101148.66
2022-10-16T23:36:56.341Z,101144.97
2022-10-16T23:39:41.091Z,101149.47
2022-10-16T23:42:26.448Z,101152.16
2022-10-16T23:45:11.665Z,101150.63
2022-10-16T23:47:56.905Z,101154.31
2022-10-16T23:50:41.833Z,101153.66
2022-10-16T23:53:27.072Z,101155.47
2022-10-16T23:56:13.080Z,101159.13
2022-10-16T23:58:58.154Z,101170.13
